Current | Forecast
Updated: 2:30 PM MSK on June 23, 2017
Observed at Belgorod, Russia
Temperature 23°C
Humidity 36%
Dew Point 7°C
Wind West at 18 km/h
Pressure 1008 hPa (Falling)
Conditions Clear
Visibility -
UV N/A
Clouds
Yesterday's Maximum 22°C
Yesterday's Minimum 12°C approx.
Yesterday's Heating Degree Days 2 approx.
Sunrise4:19 AM MSK
Sunset8:46 PM MSK
Moon Rise3:56 AM MSK
Moon Set7:45 PM MSK
Moon PhaseMoon Phase
Waning Crescent
Raw METARMETAR UUOB 231130Z 27005MPS CAVOK 23/07 Q1008 R29/090060 NOSIG


Monday
. High: 64° F.
Tuesday
. High: 60° F.
Wednesday
. High: 60° F.
Thursday
. High: 60° F.
Friday
. High: 64° F.
Saturday
. High: 64° F.
Sunday
. High: 55° F.
Monday
. High: 66° F.

Units: English | Metric

Find the Weather for any City, State or Zipcode, or Country:

U.S. State List | Severe Weather | Tropical Storms | Ski Conditions
United States | Canada | Central America | South America | Asia | Europe | Australia | Africa | Islands

Weather Underground

© Copyright 2017
The Weather Company, LLC